In Rescue
 
Open Full Screen Window  High Contrast Mode
Wind Gusting 00 knots
03
September 19, 2019 4:26 PM CDT
Weather Information
Wind Direction
  200 °
Wind Speed
  03 kt (3 mph)
Wind Gust
  00 kt (0 mph)
Altimeter
29.97 in
Visibility
10 SM
Temperature
27° C
81° F
Dewpoint
18° C
64° F
Humidity
58%
1hr Rain Fall
00.00 in.
24hr Rain Fall
00.03 in.
Sky Condition
Clear
VFR

METAR KSYN 192126Z AUTO 20003KT 10SM CLR 27/18 A2997 RMK AO2 T02700184

FAA Disclaimer: The data displayed is for advisory purposes only and is not to be used for flight planning or operations.